AirNav   Everest Fuels
 
 429 users online  

KNFE Fentress Naval Auxiliary Field
Fentress, Virginia, USA

GOING TO FENTRESS?


FAA INFORMATION EFFECTIVE 31 DECEMBER 2020

Location

FAA Identifier: NFE
Lat/Long: 36-41-31.3310N 076-08-04.4305W
36-41.522183N 076-08.073842W
36.6920364,-76.1345640
(estimated)
Elevation: 16 ft. / 5 m (estimated)
Variation: 09W (1985)
Time zone: UTC -5 (UTC -4 during Daylight Saving Time)
Zip code: 23322

Airport Operations

Airport use: Private use. Permission required prior to landing
Activation date: 08/1943
Control tower: no
ARTCC: WASHINGTON CENTER
FSS: LEESBURG FLIGHT SERVICE STATION
Attendance: UNATNDD
Segmented circle: no
Lights: RY LGTS OPERATED BY CRASH CREW DURING SCHEDULED OPNS.

Airport Communications

OCEANA APPROACH: 123.9
OCEANA DEPARTURE: 123.9
WX AWOS-3 at CPK (9 nm W): 123.675 (757-204-4290)
WX ASOS at NTU (9 nm NE): PHONE DSN 433-3619 or 757-433-3619
WX ASOS at ORF (13 nm N): PHONE 757-460-9348
WX AWOS-3PT at PVG (16 nm W): 118.375 (757-465-2175)
WX AWOS-3 at ONX (18 nm S): 119.775 (252-453-8939)

Nearby radio navigation aids

VOR radial/distance  VOR name  Freq  Var
ORFr172/12.4NORFOLK VORTAC116.9007W
ECGr011/26.1ELIZABETH CITY VOR/DME112.5007W
CCVr199/39.9CAPE CHARLES VORTAC112.2010W

 
NDB name  Hdg/Dist  Freq  Var  ID
INGLE157/10.532909WOR --- .-.
WOODVILLE027/26.925410WLLW .-.. .-.. .--

Airport Services

Runway Information

Runway 5/23

Dimensions: 8004 x 175 ft. / 2440 x 53 m
Surface: asphalt
Weight bearing capacity: 
PCN 40 /R/C/W/T
Runway edge lights: low intensity
RUNWAY 5  RUNWAY 23
Latitude: 36-41.014033N36-42.030333N
Longitude: 076-08.595917W076-07.551767W
Elevation: 14.5 ft.14.2 ft.
Traffic pattern: leftleft
Runway heading: 049 magnetic, 040 true228 magnetic, 219 true
Touchdown point: yes, no lightsyes, no lights

Airport Ownership and Management from official FAA records

Ownership: U.S. Navy
Owner: US NAVY
OCEANOGRAPHIC OFC - CODE 3142
WASHINGTON, DC 20373

Additional Remarks

FOR CD CTC WASHINGTON ARTCC AT 703-771-3587.

Instrument Procedures

There are no published instrument procedures at KNFE.

Some nearby airports with instrument procedures:

KCPK - Chesapeake Regional Airport (9 nm W)
KNTU - Oceana Naval Air Station (Apollo Soucek Field) (9 nm NE)
KORF - Norfolk International Airport (13 nm N)
KPVG - Hampton Roads Exec Airport (16 nm W)
KNGU - Norfolk Naval Station (Chambers Field) (16 nm NW)
KONX - Currituck County Regional Airport (18 nm S)
 
Loc | Ops | Rwys | IFR | FBO | Links
Com | Nav | Svcs | Stats | Notes
Area around KNFE (Fentress Naval Auxiliary Field)
 
Road maps at: MapQuest Bing Google
 
Aerial photo
WARNING: Photo may not be current or correct
Aerial photo of KNFE (Fentress Naval Auxiliary Field)
Do you have a better or more recent aerial photo of Fentress Naval Auxiliary Field that you would like to share? If so, please send us your photo.

 
Sectional chart

 
Airport distance calculator
Flying to Fentress Naval Auxiliary Field? Find the distance to fly.

From to KNFE

Sunrise and sunset
Times for 27-Jan-2021
 Local
(UTC-5)
 Zulu
(UTC)
Morning civil twilight06:4411:44
Sunrise07:1112:11
Sunset17:2322:23
Evening civil twilight17:5122:51

Current date and time
Zulu (UTC)  27-Jan-2021 07:09:10
Local (UTC-5)  27-Jan-2021 02:09:10
 
METAR
KNFE 270656Z AUTO 00000KT 10SM OVC006 07/06 A2994 RMK AO2 SLP139 T00670056
KCPK 
9nm W 
270655Z AUTO 00000KT 10SM OVC004 07/06 A2994 RMK AO2 T00660060
KNTU 
9nm NE 
270656Z 35003KT 6SM BR OVC004 08/05 A2993 RMK AO2 SLP137 T00780050
KORF 
13nm N 
270651Z AUTO 00000KT 4SM BR OVC004 07/06 A2993 RMK AO2 SLP133 T00670056
KNGU 
15nm NW 
270659Z 00000KT 4SM BR OVC003 07/05 A2995 RMK AO2 SLP140 T00670050
KPVG 
16nm W 
270656Z AUTO 00000KT 10SM OVC004 07/06 A2995 RMK AO2 SLP144 T00670061 PNO $
KONX 
18nm S 
270655Z AUTO 01003KT 5SM BR OVC004 07/07 A2994 RMK AO2 T00720072
TAF
KNTU 
9nm NE 
2523/2623 07010KT 6000 SHRA OVC010 641209 540109 541008 QNH2988INS TEMPO 2601/2607 VRB06KT 1600 RA BR OVC003 FM260700 06012KT 3200 SHRA BR BKN003 OVC010 641209 540109 541008 QNH2977INS FM261700 30008KT 9999 BKN050 600000 500000 QNH2978INS T05/2610Z T09/2619Z FN20051
KORF 
13nm N 
270531Z 2706/2806 33004KT 5SM BR OVC003 FM271500 35008KT P6SM OVC008 FM271700 35010KT P6SM OVC015 FM280300 01011KT 6SM -RA OVC020
KNGU 
15nm NW 
2523/2623 11007KT 4800 RA BR SCT005 BKN010 OVC070 641209 540109 541008 QNH2996INS TEMPO 2523/2602 3200 RA BR BKN004 OVC010 FM260200 10009KT 3200 RA BR BKN004 OVC010 641209 540109 541008 QNH2981INS TEMPO 2602/2607 4800 RA BR FEW004 BKN010 OVC030 FM261500 20007KT 9999 VCSH BKN004 OVC010 600000 500000 QNH2976INS FM262000 24006KT 9999 SCT004 BKN010 OVC025 QNH2977INS T04/2602Z T10/2614Z FN20002
NOTAMs
Click for the latest NOTAMs
NOTAMs are issued by the DoD/FAA and will open in a separate window not controlled by AirNav.

 

 
 

Would you like to see your business listed on this page?

 If your business provides an interesting product or service to pilots, flight crews, aircraft, or users of the Fentress Naval Auxiliary Field, you should consider listing it here.  To start the listing process, click on the button below
 
Add a business
 

Other Pages about Fentress Naval Auxiliary Field

Update a link
 
Copyright © AirNav, LLC. All rights reserved. Privacy Policy  Contact